sensor_id;sensor_type;location;lat;lon;timestamp;pressure;altitude;pressure_sealevel;temperature;humidity
51297;BME280;37380;45.186;9.792;2023-08-17T00:01:16;101147.19;;;26.04;100.00
51297;BME280;37380;45.186;9.792;2023-08-17T00:03:43;101147.91;;;26.11;100.00
51297;BME280;37380;45.186;9.792;2023-08-17T00:06:10;101147.63;;;26.23;100.00
51297;BME280;37380;45.186;9.792;2023-08-17T00:08:37;101145.88;;;26.22;100.00
51297;BME280;37380;45.186;9.792;2023-08-17T00:11:04;101138.72;;;26.23;100.00
51297;BME280;37380;45.186;9.792;2023-08-17T00:13:31;101136.34;;;26.48;100.00
51297;BME280;37380;45.186;9.792;2023-08-17T00:15:58;101144.13;;;26.58;100.00
51297;BME280;37380;45.186;9.792;2023-08-17T00:18:25;101141.94;;;26.38;100.00
51297;BME280;37380;45.186;9.792;2023-08-17T00:20:52;101149.34;;;26.26;100.00
51297;BME280;37380;45.186;9.792;2023-08-17T00:23:25;101145.94;;;26.19;100.00
51297;BME280;37380;45.186;9.792;2023-08-17T00:26:26;101150.88;;;26.37;100.00
51297;BME280;37380;45.186;9.792;2023-08-17T00:29:04;101135.50;;;26.44;100.00
51297;BME280;37380;45.186;9.792;2023-08-17T00:31:31;101143.19;;;26.61;100.00
51297;BME280;37380;45.186;9.792;2023-08-17T00:33:58;101139.91;;;26.47;100.00
51297;BME280;37380;45.186;9.792;2023-08-17T00:36:25;101149.91;;;26.40;100.00
51297;BME280;37380;45.186;9.792;2023-08-17T00:38:51;101149.47;;;26.21;100.00
51297;BME280;37380;45.186;9.792;2023-08-17T00:41:18;101147.84;;;26.14;100.00
51297;BME280;37380;45.186;9.792;2023-08-17T00:43:45;101149.56;;;26.18;100.00
51297;BME280;37380;45.186;9.792;2023-08-17T00:46:12;101142.81;;;26.37;100.00
51297;BME280;37380;45.186;9.792;2023-08-17T00:48:40;101142.44;;;26.56;100.00
51297;BME280;37380;45.186;9.792;2023-08-17T00:51:07;101136.28;;;26.49;100.00
51297;BME280;37380;45.186;9.792;2023-08-17T00:53:34;101148.31;;;26.33;100.00
51297;BME280;37380;45.186;9.792;2023-08-17T00:56:01;101149.34;;;26.27;100.00
51297;BME280;37380;45.186;9.792;2023-08-17T00:58:29;101146.69;;;26.26;100.00
51297;BME280;37380;45.186;9.792;2023-08-17T01:00:56;101134.94;;;26.31;100.00
51297;BME280;37380;45.186;9.792;2023-08-17T01:03:23;101133.47;;;26.57;100.00
51297;BME280;37380;45.186;9.792;2023-08-17T01:05:51;101136.16;;;26.57;100.00
51297;BME280;37380;45.186;9.792;2023-08-17T01:08:18;101129.75;;;26.62;100.00
51297;BME280;37380;45.186;9.792;2023-08-17T01:10:52;101129.84;;;26.58;100.00
51297;BME280;37380;45.186;9.792;2023-08-17T01:13:31;101145.13;;;26.56;100.00
51297;BME280;37380;45.186;9.792;2023-08-17T01:16:39;101160.38;;;26.12;100.00
51297;BME280;37380;45.186;9.792;2023-08-17T01:19:07;101165.13;;;25.99;100.00
51297;BME280;37380;45.186;9.792;2023-08-17T01:21:37;101160.66;;;26.00;100.00
51297;BME280;37380;45.186;9.792;2023-08-17T01:24:07;101162.19;;;25.68;100.00
51297;BME280;37380;45.186;9.792;2023-08-17T01:26:34;101179.22;;;25.64;100.00
51297;BME280;37380;45.186;9.792;2023-08-17T01:29:01;101169.31;;;25.69;100.00
51297;BME280;37380;45.186;9.792;2023-08-17T01:31:30;101161.31;;;25.67;100.00
51297;BME280;37380;45.186;9.792;2023-08-17T01:34:02;101166.50;;;25.75;100.00
51297;BME280;37380;45.186;9.792;2023-08-17T01:36:37;101172.00;;;25.67;100.00
51297;BME280;37380;45.186;9.792;2023-08-17T01:39:06;101176.81;;;25.50;100.00
51297;BME280;37380;45.186;9.792;2023-08-17T01:41:33;101183.59;;;25.69;100.00
51297;BME280;37380;45.186;9.792;2023-08-17T01:44:01;101182.22;;;25.47;100.00
51297;BME280;37380;45.186;9.792;2023-08-17T01:46:32;101174.09;;;25.53;100.00
51297;BME280;37380;45.186;9.792;2023-08-17T01:48:59;101174.28;;;25.42;100.00
51297;BME280;37380;45.186;9.792;2023-08-17T01:51:26;101171.59;;;25.44;100.00
51297;BME280;37380;45.186;9.792;2023-08-17T01:53:54;101184.84;;;25.51;100.00
51297;BME280;37380;45.186;9.792;2023-08-17T01:56:21;101185.78;;;25.49;100.00
51297;BME280;37380;45.186;9.792;2023-08-17T01:58:49;101163.75;;;25.35;100.00
51297;BME280;37380;45.186;9.792;2023-08-17T02:01:22;101147.53;;;25.42;100.00
51297;BME280;37380;45.186;9.792;2023-08-17T02:04:24;101154.63;;;25.45;100.00
51297;BME280;37380;45.186;9.792;2023-08-17T02:07:19;101152.59;;;25.58;100.00
51297;BME280;37380;45.186;9.792;2023-08-17T02:09:48;101153.56;;;25.53;100.00
51297;BME280;37380;45.186;9.792;2023-08-17T02:12:15;101139.50;;;25.44;100.00
51297;BME280;37380;45.186;9.792;2023-08-17T02:14:42;101133.53;;;25.29;100.00
51297;BME280;37380;45.186;9.792;2023-08-17T02:17:09;101128.28;;;25.25;100.00
51297;BME280;37380;45.186;9.792;2023-08-17T02:19:36;101127.84;;;25.46;100.00
51297;BME280;37380;45.186;9.792;2023-08-17T02:22:03;101122.31;;;25.56;100.00
51297;BME280;37380;45.186;9.792;2023-08-17T02:24:30;101116.53;;;25.75;100.00
51297;BME280;37380;45.186;9.792;2023-08-17T02:26:57;101111.59;;;25.56;100.00
51297;BME280;37380;45.186;9.792;2023-08-17T02:29:24;101106.06;;;25.65;100.00
51297;BME280;37380;45.186;9.792;2023-08-17T02:31:51;101117.69;;;25.62;100.00
51297;BME280;37380;45.186;9.792;2023-08-17T02:34:18;101111.22;;;25.30;100.00
51297;BME280;37380;45.186;9.792;2023-08-17T02:36:45;101105.44;;;25.05;100.00
51297;BME280;37380;45.186;9.792;2023-08-17T02:39:12;101101.63;;;25.19;100.00
51297;BME280;37380;45.186;9.792;2023-08-17T02:41:39;101095.63;;;25.04;100.00
51297;BME280;37380;45.186;9.792;2023-08-17T02:44:06;101087.59;;;25.04;100.00
51297;BME280;37380;45.186;9.792;2023-08-17T02:46:33;101089.34;;;25.07;100.00
51297;BME280;37380;45.186;9.792;2023-08-17T02:49:00;101084.00;;;25.08;100.00
51297;BME280;37380;45.186;9.792;2023-08-17T02:51:33;101077.34;;;25.31;100.00
51297;BME280;37380;45.186;9.792;2023-08-17T02:54:34;101062.25;;;25.27;100.00
51297;BME280;37380;45.186;9.792;2023-08-17T02:57:29;101070.16;;;25.33;100.00
51297;BME280;37380;45.186;9.792;2023-08-17T02:59:57;101071.28;;;25.21;100.00
51297;BME280;37380;45.186;9.792;2023-08-17T03:02:24;101068.00;;;25.05;100.00
51297;BME280;37380;45.186;9.792;2023-08-17T03:04:51;101070.63;;;25.07;100.00
51297;BME280;37380;45.186;9.792;2023-08-17T03:07:18;101061.94;;;25.42;100.00
51297;BME280;37380;45.186;9.792;2023-08-17T03:09:45;101067.97;;;25.52;100.00
51297;BME280;37380;45.186;9.792;2023-08-17T03:12:12;101067.78;;;25.61;100.00
51297;BME280;37380;45.186;9.792;2023-08-17T03:14:39;101058.28;;;25.46;100.00
51297;BME280;37380;45.186;9.792;2023-08-17T03:17:05;101045.78;;;25.47;100.00
51297;BME280;37380;45.186;9.792;2023-08-17T03:19:33;101030.09;;;24.85;100.00
51297;BME280;37380;45.186;9.792;2023-08-17T03:22:00;101018.78;;;24.71;100.00
51297;BME280;37380;45.186;9.792;2023-08-17T03:24:27;101028.41;;;24.79;100.00
51297;BME280;37380;45.186;9.792;2023-08-17T03:26:55;101036.22;;;24.90;100.00
51297;BME280;37380;45.186;9.792;2023-08-17T03:29:30;101043.13;;;24.54;100.00
51297;BME280;37380;45.186;9.792;2023-08-17T03:32:31;101069.13;;;24.44;100.00
51297;BME280;37380;45.186;9.792;2023-08-17T03:35:32;101097.84;;;24.81;100.00
51297;BME280;37380;45.186;9.792;2023-08-17T03:38:33;101117.34;;;24.88;100.00
51297;BME280;37380;45.186;9.792;2023-08-17T03:41:28;101129.16;;;24.76;100.00
51297;BME280;37380;45.186;9.792;2023-08-17T03:43:54;101124.72;;;24.73;100.00
51297;BME280;37380;45.186;9.792;2023-08-17T03:46:21;101110.72;;;24.57;100.00
51297;BME280;37380;45.186;9.792;2023-08-17T03:48:49;101110.72;;;24.59;100.00
51297;BME280;37380;45.186;9.792;2023-08-17T03:51:16;101133.44;;;24.84;100.00
51297;BME280;37380;45.186;9.792;2023-08-17T03:53:43;101141.53;;;24.80;100.00
51297;BME280;37380;45.186;9.792;2023-08-17T03:56:10;101122.41;;;25.03;100.00
51297;BME280;37380;45.186;9.792;2023-08-17T03:58:36;101125.97;;;25.03;100.00
51297;BME280;37380;45.186;9.792;2023-08-17T04:01:04;101135.72;;;25.04;100.00
51297;BME280;37380;45.186;9.792;2023-08-17T04:03:40;101117.06;;;25.03;100.00
51297;BME280;37380;45.186;9.792;2023-08-17T04:06:41;101123.63;;;24.85;100.00
51297;BME280;37380;45.186;9.792;2023-08-17T04:09:45;101120.56;;;25.06;100.00
51297;BME280;37380;45.186;9.792;2023-08-17T04:12:46;101123.22;;;25.06;100.00
51297;BME280;37380;45.186;9.792;2023-08-17T04:15:40;101123.13;;;25.13;100.00
51297;BME280;37380;45.186;9.792;2023-08-17T04:18:07;101129.50;;;25.05;100.00
51297;BME280;37380;45.186;9.792;2023-08-17T04:20:34;101127.59;;;25.14;100.00
51297;BME280;37380;45.186;9.792;2023-08-17T04:23:02;101121.28;;;25.18;100.00
51297;BME280;37380;45.186;9.792;2023-08-17T04:25:28;101120.47;;;25.11;100.00
51297;BME280;37380;45.186;9.792;2023-08-17T04:27:56;101123.09;;;25.16;100.00
51297;BME280;37380;45.186;9.792;2023-08-17T04:30:30;101115.97;;;25.13;100.00
51297;BME280;37380;45.186;9.792;2023-08-17T04:33:31;101123.72;;;25.30;100.00
51297;BME280;37380;45.186;9.792;2023-08-17T04:36:26;101125.44;;;25.34;100.00
51297;BME280;37380;45.186;9.792;2023-08-17T04:38:54;101120.09;;;25.33;100.00
51297;BME280;37380;45.186;9.792;2023-08-17T04:41:20;101123.44;;;25.42;100.00
51297;BME280;37380;45.186;9.792;2023-08-17T04:43:49;101119.72;;;25.51;100.00
51297;BME280;37380;45.186;9.792;2023-08-17T04:46:16;101120.97;;;25.33;100.00
51297;BME280;37380;45.186;9.792;2023-08-17T04:48:43;101113.88;;;25.32;100.00
51297;BME280;37380;45.186;9.792;2023-08-17T04:51:11;101121.84;;;25.34;100.00
51297;BME280;37380;45.186;9.792;2023-08-17T04:53:42;101120.56;;;25.55;100.00
51297;BME280;37380;45.186;9.792;2023-08-17T04:56:09;101116.41;;;25.40;100.00
51297;BME280;37380;45.186;9.792;2023-08-17T04:58:36;101118.78;;;25.53;100.00
51297;BME280;37380;45.186;9.792;2023-08-17T05:01:03;101121.09;;;25.27;100.00
51297;BME280;37380;45.186;9.792;2023-08-17T05:03:30;101116.03;;;25.57;100.00
51297;BME280;37380;45.186;9.792;2023-08-17T05:06:00;101118.88;;;25.49;100.00
51297;BME280;37380;45.186;9.792;2023-08-17T05:08:28;101113.47;;;25.50;100.00
51297;BME280;37380;45.186;9.792;2023-08-17T05:10:55;101105.91;;;25.29;100.00
51297;BME280;37380;45.186;9.792;2023-08-17T05:13:30;101113.13;;;25.24;100.00
51297;BME280;37380;45.186;9.792;2023-08-17T05:16:25;101120.53;;;25.08;100.00
51297;BME280;37380;45.186;9.792;2023-08-17T05:19:20;101109.06;;;25.01;100.00
51297;BME280;37380;45.186;9.792;2023-08-17T05:21:47;101111.59;;;25.09;100.00
51297;BME280;37380;45.186;9.792;2023-08-17T05:24:18;101113.63;;;25.44;100.00
51297;BME280;37380;45.186;9.792;2023-08-17T05:26:47;101109.13;;;25.88;100.00
51297;BME280;37380;45.186;9.792;2023-08-17T05:29:14;101094.66;;;26.36;100.00
51297;BME280;37380;45.186;9.792;2023-08-17T05:31:40;101102.88;;;27.00;97.15
51297;BME280;37380;45.186;9.792;2023-08-17T05:34:14;101102.72;;;27.68;92.18
51297;BME280;37380;45.186;9.792;2023-08-17T05:37:15;101105.66;;;28.48;86.57
51297;BME280;37380;45.186;9.792;2023-08-17T05:40:16;101111.31;;;28.92;83.57
51297;BME280;37380;45.186;9.792;2023-08-17T05:43:17;101110.38;;;29.43;79.27
51297;BME280;37380;45.186;9.792;2023-08-17T05:46:15;101110.75;;;29.81;79.15
51297;BME280;37380;45.186;9.792;2023-08-17T05:49:15;101105.94;;;30.35;75.37
51297;BME280;37380;45.186;9.792;2023-08-17T05:52:16;101110.38;;;30.58;71.78
51297;BME280;37380;45.186;9.792;2023-08-17T05:55:17;101110.16;;;31.25;69.77
51297;BME280;37380;45.186;9.792;2023-08-17T05:57:56;101109.34;;;30.82;70.37
51297;BME280;37380;45.186;9.792;2023-08-17T06:00:23;101114.03;;;30.77;71.29
51297;BME280;37380;45.186;9.792;2023-08-17T06:02:50;101127.09;;;30.00;74.40
51297;BME280;37380;45.186;9.792;2023-08-17T06:05:18;101122.56;;;30.24;71.11
51297;BME280;37380;45.186;9.792;2023-08-17T06:07:45;101113.31;;;29.61;74.19
51297;BME280;37380;45.186;9.792;2023-08-17T06:10:12;101120.25;;;30.13;72.87
51297;BME280;37380;45.186;9.792;2023-08-17T06:12:46;101124.38;;;30.23;71.78
51297;BME280;37380;45.186;9.792;2023-08-17T06:15:47;101122.72;;;31.47;67.33
51297;BME280;37380;45.186;9.792;2023-08-17T06:18:41;101124.38;;;31.29;69.18
51297;BME280;37380;45.186;9.792;2023-08-17T06:21:08;101122.16;;;31.78;65.05
51297;BME280;37380;45.186;9.792;2023-08-17T06:23:35;101115.50;;;31.06;67.17
51297;BME280;37380;45.186;9.792;2023-08-17T06:26:02;101117.84;;;32.31;65.37
51297;BME280;37380;45.186;9.792;2023-08-17T06:28:29;101114.03;;;31.59;64.73
51297;BME280;37380;45.186;9.792;2023-08-17T06:31:03;101112.53;;;30.28;70.32
51297;BME280;37380;45.186;9.792;2023-08-17T06:34:04;101123.06;;;32.16;62.00
51297;BME280;37380;45.186;9.792;2023-08-17T06:36:58;101123.97;;;30.11;69.96
51297;BME280;37380;45.186;9.792;2023-08-17T06:39:26;101120.66;;;29.32;75.55
51297;BME280;37380;45.186;9.792;2023-08-17T06:41:53;101124.38;;;29.53;75.36
51297;BME280;37380;45.186;9.792;2023-08-17T06:44:20;101130.63;;;27.94;83.43
51297;BME280;37380;45.186;9.792;2023-08-17T06:46:47;101131.03;;;27.80;84.55
51297;BME280;37380;45.186;9.792;2023-08-17T06:49:14;101132.22;;;27.39;87.98
51297;BME280;37380;45.186;9.792;2023-08-17T06:51:41;101131.69;;;28.73;83.47
51297;BME280;37380;45.186;9.792;2023-08-17T06:54:08;101131.63;;;28.48;82.82
51297;BME280;37380;45.186;9.792;2023-08-17T06:56:36;101138.88;;;27.88;86.88
51297;BME280;37380;45.186;9.792;2023-08-17T06:59:03;101135.41;;;27.84;86.39
51297;BME280;37380;45.186;9.792;2023-08-17T07:01:29;101141.88;;;28.35;84.05
51297;BME280;37380;45.186;9.792;2023-08-17T07:03:56;101140.25;;;28.29;85.10
51297;BME280;37380;45.186;9.792;2023-08-17T07:06:24;101137.91;;;29.26;77.84
51297;BME280;37380;45.186;9.792;2023-08-17T07:08:51;101142.03;;;29.85;73.32
51297;BME280;37380;45.186;9.792;2023-08-17T07:11:19;101141.41;;;28.77;80.02
51297;BME280;37380;45.186;9.792;2023-08-17T07:13:53;101143.00;;;28.56;80.09
51297;BME280;37380;45.186;9.792;2023-08-17T07:16:50;101158.31;;;29.57;74.63
51297;BME280;37380;45.186;9.792;2023-08-17T07:19:17;101162.13;;;29.51;72.96
51297;BME280;37380;45.186;9.792;2023-08-17T07:21:47;101156.16;;;28.37;80.62
51297;BME280;37380;45.186;9.792;2023-08-17T07:24:15;101142.97;;;29.10;73.64
51297;BME280;37380;45.186;9.792;2023-08-17T07:26:42;101151.03;;;28.84;74.15
51297;BME280;37380;45.186;9.792;2023-08-17T07:29:09;101155.00;;;28.99;74.53
51297;BME280;37380;45.186;9.792;2023-08-17T07:31:44;101151.97;;;29.09;73.86
51297;BME280;37380;45.186;9.792;2023-08-17T07:34:38;101153.22;;;28.44;79.27
51297;BME280;37380;45.186;9.792;2023-08-17T07:37:32;101157.44;;;28.53;79.27
51297;BME280;37380;45.186;9.792;2023-08-17T07:40:00;101155.75;;;28.21;82.71
51297;BME280;37380;45.186;9.792;2023-08-17T07:42:30;101160.66;;;28.36;82.33
51297;BME280;37380;45.186;9.792;2023-08-17T07:44:57;101158.97;;;29.65;75.78
51297;BME280;37380;45.186;9.792;2023-08-17T07:47:24;101146.63;;;29.08;77.96
51297;BME280;37380;45.186;9.792;2023-08-17T07:49:59;101160.75;;;28.61;82.60
51297;BME280;37380;45.186;9.792;2023-08-17T07:53:00;101154.50;;;29.39;78.38
51297;BME280;37380;45.186;9.792;2023-08-17T07:56:01;101153.97;;;28.76;79.74
51297;BME280;37380;45.186;9.792;2023-08-17T07:58:55;101155.03;;;28.44;80.40
51297;BME280;37380;45.186;9.792;2023-08-17T08:01:29;101163.88;;;30.01;71.36
51297;BME280;37380;45.186;9.792;2023-08-17T08:04:30;101145.09;;;29.01;75.15
51297;BME280;37380;45.186;9.792;2023-08-17T08:07:31;101148.13;;;28.90;78.25
51297;BME280;37380;45.186;9.792;2023-08-17T08:10:25;101151.06;;;29.36;75.35
51297;BME280;37380;45.186;9.792;2023-08-17T08:12:52;101151.69;;;29.17;76.28
51297;BME280;37380;45.186;9.792;2023-08-17T08:15:18;101153.47;;;28.92;75.95
51297;BME280;37380;45.186;9.792;2023-08-17T08:17:45;101145.13;;;28.46;79.22
51297;BME280;37380;45.186;9.792;2023-08-17T08:20:12;101144.41;;;28.67;79.63
51297;BME280;37380;45.186;9.792;2023-08-17T08:22:39;101157.09;;;29.42;76.52
51297;BME280;37380;45.186;9.792;2023-08-17T08:25:06;101155.72;;;29.55;75.32
51297;BME280;37380;45.186;9.792;2023-08-17T08:27:40;101162.63;;;29.63;74.07
51297;BME280;37380;45.186;9.792;2023-08-17T08:30:41;101154.38;;;30.14;71.30
51297;BME280;37380;45.186;9.792;2023-08-17T08:33:42;101163.88;;;29.77;73.41
51297;BME280;37380;45.186;9.792;2023-08-17T08:36:36;101154.84;;;29.30;73.46
51297;BME280;37380;45.186;9.792;2023-08-17T08:39:03;101155.91;;;29.49;72.47
51297;BME280;37380;45.186;9.792;2023-08-17T08:41:30;101160.84;;;29.62;72.18
51297;BME280;37380;45.186;9.792;2023-08-17T08:43:57;101161.75;;;29.62;72.60
51297;BME280;37380;45.186;9.792;2023-08-17T08:46:25;101156.25;;;29.65;70.68
51297;BME280;37380;45.186;9.792;2023-08-17T08:48:53;101153.41;;;30.39;68.28
51297;BME280;37380;45.186;9.792;2023-08-17T08:51:28;101156.06;;;30.17;68.10
51297;BME280;37380;45.186;9.792;2023-08-17T08:54:22;101150.28;;;30.04;68.81
51297;BME280;37380;45.186;9.792;2023-08-17T08:56:54;101149.72;;;30.18;69.56
51297;BME280;37380;45.186;9.792;2023-08-17T08:59:30;101144.50;;;30.59;67.25
51297;BME280;37380;45.186;9.792;2023-08-17T09:02:37;101154.16;;;30.42;67.73
51297;BME280;37380;45.186;9.792;2023-08-17T09:05:34;101147.59;;;31.74;64.10
51297;BME280;37380;45.186;9.792;2023-08-17T09:08:02;101147.94;;;30.84;66.09
51297;BME280;37380;45.186;9.792;2023-08-17T09:10:29;101134.47;;;30.84;65.32
51297;BME280;37380;45.186;9.792;2023-08-17T09:13:06;101143.28;;;31.89;61.23
51297;BME280;37380;45.186;9.792;2023-08-17T09:15:36;101132.91;;;30.77;65.19
51297;BME280;37380;45.186;9.792;2023-08-17T09:18:05;101134.19;;;31.31;63.80
51297;BME280;37380;45.186;9.792;2023-08-17T09:23:20;101117.09;;;31.51;62.87
51297;BME280;37380;45.186;9.792;2023-08-17T09:26:23;101122.88;;;31.82;60.97
51297;BME280;37380;45.186;9.792;2023-08-17T09:29:25;101121.25;;;31.58;61.70
51297;BME280;37380;45.186;9.792;2023-08-17T09:32:30;101116.25;;;32.98;57.44
51297;BME280;37380;45.186;9.792;2023-08-17T09:35:24;101121.47;;;31.93;58.64
51297;BME280;37380;45.186;9.792;2023-08-17T09:37:53;101109.72;;;32.50;58.65
51297;BME280;37380;45.186;9.792;2023-08-17T09:40:20;101112.13;;;31.22;60.76
51297;BME280;37380;45.186;9.792;2023-08-17T09:42:48;101118.84;;;31.92;58.47
51297;BME280;37380;45.186;9.792;2023-08-17T09:45:17;101113.41;;;33.18;62.64
51297;BME280;37380;45.186;9.792;2023-08-17T09:47:44;101106.63;;;32.92;55.65
51297;BME280;37380;45.186;9.792;2023-08-17T09:50:15;101106.66;;;31.44;61.30
51297;BME280;37380;45.186;9.792;2023-08-17T09:52:52;101103.94;;;31.44;61.75
51297;BME280;37380;45.186;9.792;2023-08-17T09:55:56;101107.13;;;32.10;59.69
51297;BME280;37380;45.186;9.792;2023-08-17T09:58:54;101096.13;;;32.86;54.48
51297;BME280;37380;45.186;9.792;2023-08-17T10:01:28;101101.66;;;31.93;58.98
51297;BME280;37380;45.186;9.792;2023-08-17T10:04:29;101098.06;;;31.73;59.65
51297;BME280;37380;45.186;9.792;2023-08-17T10:07:26;101100.44;;;33.07;56.09
51297;BME280;37380;45.186;9.792;2023-08-17T10:10:03;101101.84;;;33.32;55.09
51297;BME280;37380;45.186;9.792;2023-08-17T10:12:33;101101.75;;;33.16;56.02
51297;BME280;37380;45.186;9.792;2023-08-17T10:15:03;101092.78;;;34.14;50.74
51297;BME280;37380;45.186;9.792;2023-08-17T10:17:42;101098.16;;;34.15;48.32
51297;BME280;37380;45.186;9.792;2023-08-17T10:20:13;101086.59;;;32.61;53.79
51297;BME280;37380;45.186;9.792;2023-08-17T10:22:48;101086.50;;;33.48;52.35
51297;BME280;37380;45.186;9.792;2023-08-17T10:25:18;101075.69;;;32.27;55.07
51297;BME280;37380;45.186;9.792;2023-08-17T10:27:52;101073.81;;;31.72;56.27
51297;BME280;37380;45.186;9.792;2023-08-17T10:30:57;101070.25;;;32.09;56.26
51297;BME280;37380;45.186;9.792;2023-08-17T10:33:51;101062.69;;;32.69;54.07
51297;BME280;37380;45.186;9.792;2023-08-17T10:36:18;101059.28;;;33.99;51.23
51297;BME280;37380;45.186;9.792;2023-08-17T10:38:46;101061.97;;;34.31;53.43
51297;BME280;37380;45.186;9.792;2023-08-17T10:41:13;101053.84;;;34.15;50.01
51297;BME280;37380;45.186;9.792;2023-08-17T10:43:56;101066.72;;;34.27;49.71
51297;BME280;37380;45.186;9.792;2023-08-17T10:46:57;101055.91;;;34.57;48.88
51297;BME280;37380;45.186;9.792;2023-08-17T10:50:24;101061.59;;;33.08;52.20
51297;BME280;37380;45.186;9.792;2023-08-17T10:52:58;101052.25;;;32.97;53.13
51297;BME280;37380;45.186;9.792;2023-08-17T10:56:06;101048.63;;;32.63;52.47
51297;BME280;37380;45.186;9.792;2023-08-17T10:59:04;101035.97;;;32.46;54.18
51297;BME280;37380;45.186;9.792;2023-08-17T11:01:50;101042.88;;;32.69;53.15
51297;BME280;37380;45.186;9.792;2023-08-17T11:04:18;101044.03;;;32.98;52.21
51297;BME280;37380;45.186;9.792;2023-08-17T11:06:44;101036.50;;;32.87;51.92
51297;BME280;37380;45.186;9.792;2023-08-17T11:09:11;101047.63;;;33.65;55.48
51297;BME280;37380;45.186;9.792;2023-08-17T11:11:39;101030.59;;;34.57;49.27
51297;BME280;37380;45.186;9.792;2023-08-17T11:14:06;101031.47;;;33.64;48.22
51297;BME280;37380;45.186;9.792;2023-08-17T11:16:33;101035.97;;;34.87;47.16
51297;BME280;37380;45.186;9.792;2023-08-17T11:19:06;101022.72;;;33.90;48.71
51297;BME280;37380;45.186;9.792;2023-08-17T11:22:16;101026.22;;;33.11;49.42
51297;BME280;37380;45.186;9.792;2023-08-17T11:25:10;101015.97;;;32.83;50.67
51297;BME280;37380;45.186;9.792;2023-08-17T11:27:45;101016.00;;;33.66;48.51
51297;BME280;37380;45.186;9.792;2023-08-17T11:30:55;101003.78;;;32.22;54.47
51297;BME280;37380;45.186;9.792;2023-08-17T11:33:58;101001.34;;;32.87;52.02
51297;BME280;37380;45.186;9.792;2023-08-17T11:36:52;100998.81;;;33.18;54.82
51297;BME280;37380;45.186;9.792;2023-08-17T11:39:26;100991.53;;;33.51;50.58
51297;BME280;37380;45.186;9.792;2023-08-17T11:42:27;100986.66;;;32.58;51.83
51297;BME280;37380;45.186;9.792;2023-08-17T11:45:21;100980.88;;;32.12;52.67
51297;BME280;37380;45.186;9.792;2023-08-17T11:47:53;100980.72;;;32.15;53.21
51297;BME280;37380;45.186;9.792;2023-08-17T11:50:20;100984.03;;;32.90;50.19
51297;BME280;37380;45.186;9.792;2023-08-17T11:52:47;100976.97;;;33.05;49.58
51297;BME280;37380;45.186;9.792;2023-08-17T11:55:15;100973.19;;;33.07;47.30
51297;BME280;37380;45.186;9.792;2023-08-17T11:57:44;100976.28;;;33.17;46.06
51297;BME280;37380;45.186;9.792;2023-08-17T12:00:16;100962.22;;;33.74;46.53
51297;BME280;37380;45.186;9.792;2023-08-17T12:02:50;100961.81;;;34.28;45.00
51297;BME280;37380;45.186;9.792;2023-08-17T12:05:51;100958.66;;;33.89;45.96
51297;BME280;37380;45.186;9.792;2023-08-17T12:08:45;100948.28;;;34.12;43.85
51297;BME280;37380;45.186;9.792;2023-08-17T12:11:15;100941.16;;;33.47;44.54
51297;BME280;37380;45.186;9.792;2023-08-17T12:13:42;100935.75;;;33.31;45.14
51297;BME280;37380;45.186;9.792;2023-08-17T12:16:16;100936.06;;;33.09;45.25
51297;BME280;37380;45.186;9.792;2023-08-17T12:19:18;100925.41;;;33.86;44.21
51297;BME280;37380;45.186;9.792;2023-08-17T12:22:12;100926.91;;;34.21;41.72
51297;BME280;37380;45.186;9.792;2023-08-17T12:24:39;100920.63;;;33.59;42.95
51297;BME280;37380;45.186;9.792;2023-08-17T12:27:13;100924.59;;;33.53;43.02
51297;BME280;37380;45.186;9.792;2023-08-17T12:30:29;100921.44;;;33.13;43.07
51297;BME280;37380;45.186;9.792;2023-08-17T12:33:24;100922.88;;;33.51;43.13
51297;BME280;37380;45.186;9.792;2023-08-17T12:35:51;100918.25;;;33.85;42.54
51297;BME280;37380;45.186;9.792;2023-08-17T12:38:25;100929.97;;;34.45;40.44
51297;BME280;37380;45.186;9.792;2023-08-17T12:41:26;100925.44;;;33.70;41.77
51297;BME280;37380;45.186;9.792;2023-08-17T12:44:20;100925.56;;;34.29;39.73
51297;BME280;37380;45.186;9.792;2023-08-17T12:46:47;100916.97;;;34.06;40.36
51297;BME280;37380;45.186;9.792;2023-08-17T12:49:14;100912.50;;;34.35;39.18
51297;BME280;37380;45.186;9.792;2023-08-17T12:51:41;100913.44;;;34.20;40.57
51297;BME280;37380;45.186;9.792;2023-08-17T12:54:12;100907.03;;;33.61;40.84
51297;BME280;37380;45.186;9.792;2023-08-17T12:56:41;100901.63;;;34.07;40.74
51297;BME280;37380;45.186;9.792;2023-08-17T12:59:08;100904.09;;;34.40;40.07
51297;BME280;37380;45.186;9.792;2023-08-17T13:01:35;100904.78;;;35.01;39.82
51297;BME280;37380;45.186;9.792;2023-08-17T13:04:02;100903.94;;;34.57;40.41
51297;BME280;37380;45.186;9.792;2023-08-17T13:06:29;100911.47;;;34.95;38.50
51297;BME280;37380;45.186;9.792;2023-08-17T13:09:27;100919.25;;;35.57;36.81
51297;BME280;37380;45.186;9.792;2023-08-17T13:12:28;100917.59;;;34.99;37.96
51297;BME280;37380;45.186;9.792;2023-08-17T13:15:29;100924.78;;;34.71;42.25
51297;BME280;37380;45.186;9.792;2023-08-17T13:18:30;100921.34;;;34.53;42.84
51297;BME280;37380;45.186;9.792;2023-08-17T13:21:24;100910.56;;;33.77;47.23
51297;BME280;37380;45.186;9.792;2023-08-17T13:23:51;100911.41;;;34.68;42.88
51297;BME280;37380;45.186;9.792;2023-08-17T13:26:27;100912.75;;;35.18;40.71
51297;BME280;37380;45.186;9.792;2023-08-17T13:29:31;100921.72;;;35.33;40.64
51297;BME280;37380;45.186;9.792;2023-08-17T13:32:25;100922.13;;;35.27;41.50
51297;BME280;37380;45.186;9.792;2023-08-17T13:35:01;100926.72;;;35.53;42.03
51297;BME280;37380;45.186;9.792;2023-08-17T13:38:02;100928.84;;;35.63;40.91